sensor_id;sensor_type;location;lat;lon;timestamp;pressure;altitude;pressure_sealevel;temperature;humidity
48077;BME280;33854;57.708;12.008;2022-10-31T00:01:21;101306.69;;;13.10;100.00
48077;BME280;33854;57.708;12.008;2022-10-31T00:03:47;101299.53;;;13.13;100.00
48077;BME280;33854;57.708;12.008;2022-10-31T00:06:13;101291.44;;;13.18;100.00
48077;BME280;33854;57.708;12.008;2022-10-31T00:08:38;101278.63;;;13.12;100.00
48077;BME280;33854;57.708;12.008;2022-10-31T00:11:07;101296.63;;;13.20;100.00
48077;BME280;33854;57.708;12.008;2022-10-31T00:13:33;101278.31;;;13.18;100.00
48077;BME280;33854;57.708;12.008;2022-10-31T00:15:58;101266.31;;;13.14;100.00
48077;BME280;33854;57.708;12.008;2022-10-31T00:18:23;101265.09;;;13.21;100.00
48077;BME280;33854;57.708;12.008;2022-10-31T00:20:58;101245.13;;;13.19;100.00
48077;BME280;33854;57.708;12.008;2022-10-31T00:23:23;101237.09;;;13.22;100.00
48077;BME280;33854;57.708;12.008;2022-10-31T00:25:48;101230.94;;;13.23;100.00
48077;BME280;33854;57.708;12.008;2022-10-31T00:28:14;101217.91;;;13.21;100.00
48077;BME280;33854;57.708;12.008;2022-10-31T00:30:39;101190.22;;;13.16;100.00
48077;BME280;33854;57.708;12.008;2022-10-31T00:33:04;101191.09;;;13.16;100.00
48077;BME280;33854;57.708;12.008;2022-10-31T00:35:30;101198.09;;;13.16;100.00
48077;BME280;33854;57.708;12.008;2022-10-31T00:37:55;101192.16;;;13.12;100.00
48077;BME280;33854;57.708;12.008;2022-10-31T00:40:21;101182.75;;;13.08;100.00
48077;BME280;33854;57.708;12.008;2022-10-31T00:42:46;101163.97;;;12.98;100.00
48077;BME280;33854;57.708;12.008;2022-10-31T00:45:11;101183.31;;;12.96;100.00
48077;BME280;33854;57.708;12.008;2022-10-31T00:47:37;101198.94;;;12.97;100.00
48077;BME280;33854;57.708;12.008;2022-10-31T00:50:05;101182.00;;;12.87;100.00
48077;BME280;33854;57.708;12.008;2022-10-31T00:52:30;101199.09;;;12.94;100.00
48077;BME280;33854;57.708;12.008;2022-10-31T00:54:56;101198.56;;;12.88;100.00
48077;BME280;33854;57.708;12.008;2022-10-31T00:57:21;101200.22;;;12.89;100.00
48077;BME280;33854;57.708;12.008;2022-10-31T00:59:46;101197.63;;;12.89;100.00
48077;BME280;33854;57.708;12.008;2022-10-31T01:02:12;101219.13;;;12.95;100.00
48077;BME280;33854;57.708;12.008;2022-10-31T01:04:37;101201.03;;;12.91;100.00
48077;BME280;33854;57.708;12.008;2022-10-31T01:07:02;101214.81;;;12.94;100.00
48077;BME280;33854;57.708;12.008;2022-10-31T01:09:28;101209.56;;;12.94;100.00
48077;BME280;33854;57.708;12.008;2022-10-31T01:11:53;101211.50;;;12.91;100.00
48077;BME280;33854;57.708;12.008;2022-10-31T01:14:18;101231.53;;;12.92;100.00
48077;BME280;33854;57.708;12.008;2022-10-31T01:16:44;101234.28;;;12.89;100.00
48077;BME280;33854;57.708;12.008;2022-10-31T01:19:09;101230.75;;;12.90;100.00
48077;BME280;33854;57.708;12.008;2022-10-31T01:21:34;101231.63;;;12.90;100.00
48077;BME280;33854;57.708;12.008;2022-10-31T01:24:00;101239.53;;;12.89;100.00
48077;BME280;33854;57.708;12.008;2022-10-31T01:26:29;101249.09;;;12.90;100.00
48077;BME280;33854;57.708;12.008;2022-10-31T01:28:56;101264.09;;;12.86;100.00
48077;BME280;33854;57.708;12.008;2022-10-31T01:31:25;101272.91;;;12.85;100.00
48077;BME280;33854;57.708;12.008;2022-10-31T01:33:51;101272.81;;;12.87;100.00
48077;BME280;33854;57.708;12.008;2022-10-31T01:36:26;101264.19;;;12.85;100.00
48077;BME280;33854;57.708;12.008;2022-10-31T01:38:53;101278.13;;;12.85;100.00
48077;BME280;33854;57.708;12.008;2022-10-31T01:41:22;101269.56;;;12.82;100.00
48077;BME280;33854;57.708;12.008;2022-10-31T01:46:27;101293.19;;;12.80;100.00
48077;BME280;33854;57.708;12.008;2022-10-31T01:48:55;101291.72;;;12.75;100.00
48077;BME280;33854;57.708;12.008;2022-10-31T01:51:25;101297.81;;;12.75;100.00
48077;BME280;33854;57.708;12.008;2022-10-31T01:53:55;101310.72;;;12.80;100.00
48077;BME280;33854;57.708;12.008;2022-10-31T01:56:23;101323.09;;;12.76;100.00
48077;BME280;33854;57.708;12.008;2022-10-31T01:58:49;101329.94;;;12.79;100.00
48077;BME280;33854;57.708;12.008;2022-10-31T02:01:16;101337.88;;;12.77;100.00
48077;BME280;33854;57.708;12.008;2022-10-31T02:03:43;101343.09;;;12.77;100.00
48077;BME280;33854;57.708;12.008;2022-10-31T02:06:26;101337.19;;;12.74;100.00
48077;BME280;33854;57.708;12.008;2022-10-31T02:08:55;101342.47;;;12.72;100.00
48077;BME280;33854;57.708;12.008;2022-10-31T02:11:22;101364.06;;;12.77;100.00
48077;BME280;33854;57.708;12.008;2022-10-31T02:13:47;101368.38;;;12.78;100.00
48077;BME280;33854;57.708;12.008;2022-10-31T02:16:13;101388.28;;;12.82;100.00
48077;BME280;33854;57.708;12.008;2022-10-31T02:18:38;101392.69;;;12.82;100.00
48077;BME280;33854;57.708;12.008;2022-10-31T02:38:06;101427.78;;;12.78;100.00
48077;BME280;33854;57.708;12.008;2022-10-31T02:40:39;101443.22;;;12.84;100.00
48077;BME280;33854;57.708;12.008;2022-10-31T02:43:12;101465.03;;;12.84;100.00
48077;BME280;33854;57.708;12.008;2022-10-31T02:45:48;101468.63;;;12.82;100.00
48077;BME280;33854;57.708;12.008;2022-10-31T02:48:24;101472.81;;;12.86;100.00
48077;BME280;33854;57.708;12.008;2022-10-31T02:51:02;101470.19;;;12.86;100.00
48077;BME280;33854;57.708;12.008;2022-10-31T02:53:35;101448.72;;;12.78;100.00
48077;BME280;33854;57.708;12.008;2022-10-31T02:56:14;101467.56;;;12.86;100.00
48077;BME280;33854;57.708;12.008;2022-10-31T02:58:44;101466.66;;;12.87;100.00
48077;BME280;33854;57.708;12.008;2022-10-31T03:06:53;101429.13;;;12.86;100.00
48077;BME280;33854;57.708;12.008;2022-10-31T03:09:28;101420.56;;;12.83;100.00
48077;BME280;33854;57.708;12.008;2022-10-31T03:12:07;101415.31;;;12.83;100.00
48077;BME280;33854;57.708;12.008;2022-10-31T03:14:41;101412.66;;;12.84;100.00
48077;BME280;33854;57.708;12.008;2022-10-31T03:17:14;101406.75;;;12.79;100.00
48077;BME280;33854;57.708;12.008;2022-10-31T03:19:45;101411.91;;;12.81;100.00
48077;BME280;33854;57.708;12.008;2022-10-31T03:22:31;101404.16;;;12.79;100.00
48077;BME280;33854;57.708;12.008;2022-10-31T03:25:00;101398.19;;;12.76;100.00
48077;BME280;33854;57.708;12.008;2022-10-31T03:27:29;101394.25;;;12.66;100.00
48077;BME280;33854;57.708;12.008;2022-10-31T03:29:59;101420.19;;;12.72;100.00
48077;BME280;33854;57.708;12.008;2022-10-31T03:32:30;101429.88;;;12.70;100.00
48077;BME280;33854;57.708;12.008;2022-10-31T03:34:59;101439.63;;;12.66;100.00
48077;BME280;33854;57.708;12.008;2022-10-31T03:37:27;101457.84;;;12.69;100.00
48077;BME280;33854;57.708;12.008;2022-10-31T03:39:55;101444.19;;;12.63;100.00
48077;BME280;33854;57.708;12.008;2022-10-31T03:42:24;101456.97;;;12.69;100.00
48077;BME280;33854;57.708;12.008;2022-10-31T03:44:55;101485.91;;;12.66;100.00
48077;BME280;33854;57.708;12.008;2022-10-31T03:47:21;101487.63;;;12.67;100.00
48077;BME280;33854;57.708;12.008;2022-10-31T03:49:47;101477.53;;;12.57;100.00
48077;BME280;33854;57.708;12.008;2022-10-31T03:52:35;101500.00;;;12.63;100.00
48077;BME280;33854;57.708;12.008;2022-10-31T03:55:18;101500.06;;;12.62;100.00
48077;BME280;33854;57.708;12.008;2022-10-31T03:57:54;101514.06;;;12.61;100.00
48077;BME280;33854;57.708;12.008;2022-10-31T04:00:22;101522.84;;;12.60;100.00
48077;BME280;33854;57.708;12.008;2022-10-31T04:03:07;101538.56;;;12.60;100.00
48077;BME280;33854;57.708;12.008;2022-10-31T04:05:35;101553.44;;;12.59;100.00
48077;BME280;33854;57.708;12.008;2022-10-31T04:08:04;101555.19;;;12.58;100.00
48077;BME280;33854;57.708;12.008;2022-10-31T04:10:33;101556.03;;;12.59;100.00
48077;BME280;33854;57.708;12.008;2022-10-31T04:13:06;101563.94;;;12.57;100.00
48077;BME280;33854;57.708;12.008;2022-10-31T04:15:33;101569.13;;;12.59;100.00
48077;BME280;33854;57.708;12.008;2022-10-31T04:18:00;101580.75;;;12.52;100.00
48077;BME280;33854;57.708;12.008;2022-10-31T04:20:36;101595.31;;;12.59;100.00
48077;BME280;33854;57.708;12.008;2022-10-31T04:23:03;101606.66;;;12.60;100.00
48077;BME280;33854;57.708;12.008;2022-10-31T04:25:29;101608.53;;;12.56;100.00
48077;BME280;33854;57.708;12.008;2022-10-31T04:27:54;101615.41;;;12.58;100.00
48077;BME280;33854;57.708;12.008;2022-10-31T04:30:20;101622.38;;;12.60;100.00
48077;BME280;33854;57.708;12.008;2022-10-31T04:32:46;101626.00;;;12.55;100.00
48077;BME280;33854;57.708;12.008;2022-10-31T04:35:11;101625.03;;;12.58;100.00
48077;BME280;33854;57.708;12.008;2022-10-31T04:37:36;101629.41;;;12.57;100.00
48077;BME280;33854;57.708;12.008;2022-10-31T04:40:03;101624.50;;;12.50;100.00
48077;BME280;33854;57.708;12.008;2022-10-31T04:42:29;101634.72;;;12.56;100.00
48077;BME280;33854;57.708;12.008;2022-10-31T04:44:55;101637.25;;;12.57;100.00
48077;BME280;33854;57.708;12.008;2022-10-31T04:47:20;101644.25;;;12.57;100.00
48077;BME280;33854;57.708;12.008;2022-10-31T04:49:46;101624.53;;;12.48;100.00
48077;BME280;33854;57.708;12.008;2022-10-31T04:52:12;101633.06;;;12.53;100.00
48077;BME280;33854;57.708;12.008;2022-10-31T04:54:37;101622.47;;;12.56;100.00
48077;BME280;33854;57.708;12.008;2022-10-31T04:57:03;101613.78;;;12.56;100.00
48077;BME280;33854;57.708;12.008;2022-10-31T04:59:28;101605.91;;;12.56;100.00
48077;BME280;33854;57.708;12.008;2022-10-31T05:01:53;101604.16;;;12.56;100.00
48077;BME280;33854;57.708;12.008;2022-10-31T05:04:19;101579.91;;;12.51;100.00
48077;BME280;33854;57.708;12.008;2022-10-31T05:06:44;101571.09;;;12.54;100.00
48077;BME280;33854;57.708;12.008;2022-10-31T05:09:09;101544.75;;;12.57;100.00
48077;BME280;33854;57.708;12.008;2022-10-31T05:11:35;101517.06;;;12.51;100.00
48077;BME280;33854;57.708;12.008;2022-10-31T05:14:00;101490.88;;;12.51;100.00
48077;BME280;33854;57.708;12.008;2022-10-31T05:16:25;101441.41;;;12.45;100.00
48077;BME280;33854;57.708;12.008;2022-10-31T05:18:51;101411.81;;;12.43;100.00
48077;BME280;33854;57.708;12.008;2022-10-31T05:21:16;101402.94;;;12.47;100.00
48077;BME280;33854;57.708;12.008;2022-10-31T05:23:41;101383.09;;;12.42;100.00
48077;BME280;33854;57.708;12.008;2022-10-31T05:26:07;101386.28;;;12.48;100.00
48077;BME280;33854;57.708;12.008;2022-10-31T05:28:32;101370.72;;;12.45;100.00
48077;BME280;33854;57.708;12.008;2022-10-31T05:30:57;101368.09;;;12.45;100.00
48077;BME280;33854;57.708;12.008;2022-10-31T05:33:23;101354.31;;;12.42;100.00
48077;BME280;33854;57.708;12.008;2022-10-31T05:35:48;101330.16;;;12.35;100.00
48077;BME280;33854;57.708;12.008;2022-10-31T05:38:13;101337.75;;;12.41;100.00
48077;BME280;33854;57.708;12.008;2022-10-31T05:40:39;101335.00;;;12.44;100.00
48077;BME280;33854;57.708;12.008;2022-10-31T05:43:04;101320.19;;;12.43;100.00
48077;BME280;33854;57.708;12.008;2022-10-31T05:45:29;101303.72;;;12.41;100.00
48077;BME280;33854;57.708;12.008;2022-10-31T05:47:57;101297.63;;;12.41;100.00
48077;BME280;33854;57.708;12.008;2022-10-31T05:50:23;101285.41;;;12.41;100.00
48077;BME280;33854;57.708;12.008;2022-10-31T05:52:59;101272.31;;;12.41;100.00
48077;BME280;33854;57.708;12.008;2022-10-31T05:55:25;101257.50;;;12.40;100.00
48077;BME280;33854;57.708;12.008;2022-10-31T05:57:52;101253.13;;;12.41;100.00
48077;BME280;33854;57.708;12.008;2022-10-31T06:00:18;101248.66;;;12.43;100.00
48077;BME280;33854;57.708;12.008;2022-10-31T06:02:43;101243.44;;;12.43;100.00
48077;BME280;33854;57.708;12.008;2022-10-31T06:05:08;101249.38;;;12.46;100.00
48077;BME280;33854;57.708;12.008;2022-10-31T06:07:34;101243.25;;;12.47;100.00
48077;BME280;33854;57.708;12.008;2022-10-31T06:10:01;101242.31;;;12.48;100.00
48077;BME280;33854;57.708;12.008;2022-10-31T06:12:27;101246.72;;;12.48;100.00
48077;BME280;33854;57.708;12.008;2022-10-31T06:14:52;101239.78;;;12.47;100.00
48077;BME280;33854;57.708;12.008;2022-10-31T06:17:17;101227.69;;;12.44;100.00
48077;BME280;33854;57.708;12.008;2022-10-31T06:19:42;101223.34;;;12.43;100.00
48077;BME280;33854;57.708;12.008;2022-10-31T06:22:08;101237.66;;;12.55;100.00
48077;BME280;33854;57.708;12.008;2022-10-31T06:24:33;101232.50;;;12.53;100.00
48077;BME280;33854;57.708;12.008;2022-10-31T06:26:59;101240.22;;;12.56;100.00
48077;BME280;33854;57.708;12.008;2022-10-31T06:29:24;101245.31;;;12.60;100.00
48077;BME280;33854;57.708;12.008;2022-10-31T06:31:52;101241.88;;;12.57;100.00
48077;BME280;33854;57.708;12.008;2022-10-31T06:34:18;101260.06;;;12.61;100.00
48077;BME280;33854;57.708;12.008;2022-10-31T06:36:45;101267.88;;;12.62;100.00
48077;BME280;33854;57.708;12.008;2022-10-31T06:39:11;101273.16;;;12.61;100.00
48077;BME280;33854;57.708;12.008;2022-10-31T06:41:36;101291.22;;;12.67;100.00
48077;BME280;33854;57.708;12.008;2022-10-31T06:44:02;101307.66;;;12.70;100.00
48077;BME280;33854;57.708;12.008;2022-10-31T06:46:27;101321.66;;;12.69;100.00
48077;BME280;33854;57.708;12.008;2022-10-31T06:48:52;101338.56;;;12.62;100.00
48077;BME280;33854;57.708;12.008;2022-10-31T06:51:18;101369.78;;;12.67;100.00
48077;BME280;33854;57.708;12.008;2022-10-31T06:53:43;101417.69;;;12.69;100.00
48077;BME280;33854;57.708;12.008;2022-10-31T06:56:08;101455.34;;;12.66;100.00
48077;BME280;33854;57.708;12.008;2022-10-31T06:58:34;101500.81;;;12.65;100.00
48077;BME280;33854;57.708;12.008;2022-10-31T07:01:00;101525.34;;;12.63;100.00
48077;BME280;33854;57.708;12.008;2022-10-31T07:03:25;101553.56;;;12.56;100.00
48077;BME280;33854;57.708;12.008;2022-10-31T07:05:51;101561.97;;;12.42;100.00
48077;BME280;33854;57.708;12.008;2022-10-31T07:08:16;101595.94;;;12.44;100.00
48077;BME280;33854;57.708;12.008;2022-10-31T07:10:42;101622.03;;;12.45;100.00
48077;BME280;33854;57.708;12.008;2022-10-31T07:13:13;101645.75;;;12.42;100.00
48077;BME280;33854;57.708;12.008;2022-10-31T07:15:40;101669.34;;;12.41;100.00
48077;BME280;33854;57.708;12.008;2022-10-31T07:18:07;101690.91;;;12.47;100.00
48077;BME280;33854;57.708;12.008;2022-10-31T07:20:33;101693.66;;;12.44;100.00
48077;BME280;33854;57.708;12.008;2022-10-31T07:22:58;101705.13;;;12.40;100.00
48077;BME280;33854;57.708;12.008;2022-10-31T07:25:25;101703.34;;;12.42;100.00
48077;BME280;33854;57.708;12.008;2022-10-31T07:27:50;101708.56;;;12.42;100.00
48077;BME280;33854;57.708;12.008;2022-10-31T07:30:16;101707.59;;;12.45;100.00
48077;BME280;33854;57.708;12.008;2022-10-31T07:32:47;101716.97;;;12.50;100.00
48077;BME280;33854;57.708;12.008;2022-10-31T07:35:15;101721.13;;;12.56;100.00
48077;BME280;33854;57.708;12.008;2022-10-31T07:37:42;101719.28;;;12.58;100.00
48077;BME280;33854;57.708;12.008;2022-10-31T07:40:08;101704.63;;;12.54;100.00
48077;BME280;33854;57.708;12.008;2022-10-31T07:42:38;101707.19;;;12.55;100.00
48077;BME280;33854;57.708;12.008;2022-10-31T07:45:05;101696.59;;;12.58;100.00
48077;BME280;33854;57.708;12.008;2022-10-31T07:47:41;101683.00;;;12.49;100.00
48077;BME280;33854;57.708;12.008;2022-10-31T07:50:09;101687.00;;;12.57;100.00
48077;BME280;33854;57.708;12.008;2022-10-31T07:52:35;101679.22;;;12.56;100.00
48077;BME280;33854;57.708;12.008;2022-10-31T07:55:00;101674.91;;;12.55;100.00
48077;BME280;33854;57.708;12.008;2022-10-31T07:57:26;101671.19;;;12.61;100.00
48077;BME280;33854;57.708;12.008;2022-10-31T07:59:51;101675.75;;;12.55;100.00
48077;BME280;33854;57.708;12.008;2022-10-31T08:02:17;101667.78;;;12.58;100.00
48077;BME280;33854;57.708;12.008;2022-10-31T08:04:43;101656.75;;;12.50;100.00
48077;BME280;33854;57.708;12.008;2022-10-31T08:07:08;101633.00;;;12.33;100.00
48077;BME280;33854;57.708;12.008;2022-10-31T08:09:33;101639.56;;;12.43;100.00
48077;BME280;33854;57.708;12.008;2022-10-31T08:11:59;101644.34;;;12.34;100.00
48077;BME280;33854;57.708;12.008;2022-10-31T08:14:24;101652.75;;;12.42;100.00
48077;BME280;33854;57.708;12.008;2022-10-31T08:16:49;101641.09;;;12.27;100.00
48077;BME280;33854;57.708;12.008;2022-10-31T08:19:15;101644.47;;;12.31;100.00
48077;BME280;33854;57.708;12.008;2022-10-31T08:21:40;101652.13;;;12.35;100.00
48077;BME280;33854;57.708;12.008;2022-10-31T08:24:06;101645.03;;;12.37;100.00
48077;BME280;33854;57.708;12.008;2022-10-31T08:26:31;101644.94;;;12.40;100.00
48077;BME280;33854;57.708;12.008;2022-10-31T08:28:57;101635.13;;;12.45;100.00
48077;BME280;33854;57.708;12.008;2022-10-31T08:31:23;101608.13;;;12.45;100.00
48077;BME280;33854;57.708;12.008;2022-10-31T08:33:48;101609.19;;;12.61;100.00
48077;BME280;33854;57.708;12.008;2022-10-31T08:36:14;101597.28;;;12.74;100.00
48077;BME280;33854;57.708;12.008;2022-10-31T08:38:39;101577.88;;;12.80;100.00
48077;BME280;33854;57.708;12.008;2022-10-31T08:41:05;101541.59;;;12.91;100.00
48077;BME280;33854;57.708;12.008;2022-10-31T08:43:30;101522.31;;;12.92;100.00
48077;BME280;33854;57.708;12.008;2022-10-31T08:45:55;101494.88;;;13.00;100.00
48077;BME280;33854;57.708;12.008;2022-10-31T08:48:21;101476.41;;;13.03;100.00
48077;BME280;33854;57.708;12.008;2022-10-31T08:50:46;101461.16;;;13.13;100.00
48077;BME280;33854;57.708;12.008;2022-10-31T08:53:17;101435.53;;;13.20;100.00
48077;BME280;33854;57.708;12.008;2022-10-31T08:55:45;101428.28;;;13.25;100.00
48077;BME280;33854;57.708;12.008;2022-10-31T08:58:13;101403.84;;;13.24;100.00
48077;BME280;33854;57.708;12.008;2022-10-31T09:00:38;101384.66;;;13.24;100.00
48077;BME280;33854;57.708;12.008;2022-10-31T09:03:06;101367.34;;;13.38;100.00
48077;BME280;33854;57.708;12.008;2022-10-31T09:05:32;101353.34;;;13.39;100.00
48077;BME280;33854;57.708;12.008;2022-10-31T09:07:59;101327.69;;;13.46;100.00
48077;BME280;33854;57.708;12.008;2022-10-31T09:10:26;101307.53;;;13.46;100.00
48077;BME280;33854;57.708;12.008;2022-10-31T09:12:55;101301.47;;;13.46;100.00
48077;BME280;33854;57.708;12.008;2022-10-31T09:15:22;101278.00;;;13.43;100.00
48077;BME280;33854;57.708;12.008;2022-10-31T09:17:48;101298.50;;;13.52;100.00
48077;BME280;33854;57.708;12.008;2022-10-31T09:20:13;101279.63;;;13.45;100.00
48077;BME280;33854;57.708;12.008;2022-10-31T09:22:38;101297.03;;;13.46;100.00
48077;BME280;33854;57.708;12.008;2022-10-31T09:25:04;101294.13;;;13.52;100.00
48077;BME280;33854;57.708;12.008;2022-10-31T09:27:29;101295.22;;;13.48;100.00
48077;BME280;33854;57.708;12.008;2022-10-31T09:29:55;101303.31;;;13.61;100.00
48077;BME280;33854;57.708;12.008;2022-10-31T09:32:20;101309.84;;;13.52;100.00
48077;BME280;33854;57.708;12.008;2022-10-31T09:34:46;101318.41;;;13.56;100.00
48077;BME280;33854;57.708;12.008;2022-10-31T09:37:11;101316.97;;;13.85;100.00
48077;BME280;33854;57.708;12.008;2022-10-31T09:39:36;101325.16;;;13.96;100.00
48077;BME280;33854;57.708;12.008;2022-10-31T09:50:52;101398.31;;;13.85;100.00
48077;BME280;33854;57.708;12.008;2022-10-31T09:56:14;101440.72;;;13.76;100.00
48077;BME280;33854;57.708;12.008;2022-10-31T09:59:01;101456.81;;;13.87;100.00
48077;BME280;33854;57.708;12.008;2022-10-31T10:01:49;101475.25;;;13.66;100.00
48077;BME280;33854;57.708;12.008;2022-10-31T10:07:05;101502.97;;;13.72;100.00
48077;BME280;33854;57.708;12.008;2022-10-31T10:09:32;101502.34;;;13.86;100.00
48077;BME280;33854;57.708;12.008;2022-10-31T10:14:56;101533.84;;;13.86;100.00
48077;BME280;33854;57.708;12.008;2022-10-31T10:17:37;101543.25;;;13.71;100.00
48077;BME280;33854;57.708;12.008;2022-10-31T10:20:21;101537.84;;;13.93;100.00
48077;BME280;33854;57.708;12.008;2022-10-31T10:26:06;101535.03;;;13.79;100.00
48077;BME280;33854;57.708;12.008;2022-10-31T10:28:37;101534.72;;;13.66;100.00
48077;BME280;33854;57.708;12.008;2022-10-31T10:31:32;101533.16;;;13.81;100.00
48077;BME280;33854;57.708;12.008;2022-10-31T10:34:11;101522.81;;;13.78;100.00
48077;BME280;33854;57.708;12.008;2022-10-31T10:36:52;101537.94;;;13.73;100.00
48077;BME280;33854;57.708;12.008;2022-10-31T10:39:36;101531.41;;;13.81;100.00
48077;BME280;33854;57.708;12.008;2022-10-31T10:42:14;101541.19;;;13.78;100.00
48077;BME280;33854;57.708;12.008;2022-10-31T10:44:59;101535.88;;;13.79;100.00
48077;BME280;33854;57.708;12.008;2022-10-31T10:48:11;101538.94;;;13.70;100.00
48077;BME280;33854;57.708;12.008;2022-10-31T10:50:36;101543.06;;;13.94;100.00
48077;BME280;33854;57.708;12.008;2022-10-31T10:53:59;101560.69;;;13.91;100.00
48077;BME280;33854;57.708;12.008;2022-10-31T10:56:23;101569.19;;;13.96;100.00
48077;BME280;33854;57.708;12.008;2022-10-31T10:58:57;101569.28;;;13.94;100.00
48077;BME280;33854;57.708;12.008;2022-10-31T11:01:22;101558.56;;;13.99;100.00
48077;BME280;33854;57.708;12.008;2022-10-31T11:03:48;101586.63;;;14.15;100.00
48077;BME280;33854;57.708;12.008;2022-10-31T11:06:19;101581.66;;;14.09;100.00
48077;BME280;33854;57.708;12.008;2022-10-31T11:08:47;101601.38;;;14.18;100.00
48077;BME280;33854;57.708;12.008;2022-10-31T11:11:31;101613.31;;;14.25;100.00
48077;BME280;33854;57.708;12.008;2022-10-31T11:14:02;101621.31;;;14.59;100.00
48077;BME280;33854;57.708;12.008;2022-10-31T11:16:39;101641.00;;;14.51;100.00
48077;BME280;33854;57.708;12.008;2022-10-31T11:19:09;101659.16;;;14.55;100.00
48077;BME280;33854;57.708;12.008;2022-10-31T11:21:42;101655.84;;;14.52;100.00
48077;BME280;33854;57.708;12.008;2022-10-31T11:26:37;101664.91;;;14.63;100.00
48077;BME280;33854;57.708;12.008;2022-10-31T11:29:03;101679.16;;;14.58;100.00
48077;BME280;33854;57.708;12.008;2022-10-31T11:31:31;101692.19;;;14.42;100.00
48077;BME280;33854;57.708;12.008;2022-10-31T11:34:06;101705.31;;;14.42;100.00
48077;BME280;33854;57.708;12.008;2022-10-31T11:36:38;101709.16;;;14.54;100.00
48077;BME280;33854;57.708;12.008;2022-10-31T11:39:22;101705.59;;;14.55;100.00
48077;BME280;33854;57.708;12.008;2022-10-31T11:41:48;101716.31;;;14.69;100.00
48077;BME280;33854;57.708;12.008;2022-10-31T11:44:21;101727.88;;;14.83;100.00
48077;BME280;33854;57.708;12.008;2022-10-31T11:46:52;101750.47;;;15.40;100.00
48077;BME280;33854;57.708;12.008;2022-10-31T11:51:56;101825.28;;;16.55;100.00
48077;BME280;33854;57.708;12.008;2022-10-31T11:54:26;101884.28;;;17.32;100.00
48077;BME280;33854;57.708;12.008;2022-10-31T11:56:52;101967.59;;;16.88;100.00
48077;BME280;33854;57.708;12.008;2022-10-31T11:59:23;101982.00;;;17.46;100.00
48077;BME280;33854;57.708;12.008;2022-10-31T12:01:51;102047.53;;;18.02;100.00
48077;BME280;33854;57.708;12.008;2022-10-31T12:04:18;102083.03;;;18.59;100.00
48077;BME280;33854;57.708;12.008;2022-10-31T12:06:44;102154.84;;;18.67;100.00
48077;BME280;33854;57.708;12.008;2022-10-31T12:09:23;102207.38;;;18.58;100.00
48077;BME280;33854;57.708;12.008;2022-10-31T12:14:55;102223.22;;;18.89;100.00
48077;BME280;33854;57.708;12.008;2022-10-31T12:40:06;102262.47;;;17.33;100.00
48077;BME280;33854;57.708;12.008;2022-10-31T12:54:22;102243.34;;;16.37;100.00
48077;BME280;33854;57.708;12.008;2022-10-31T12:59:44;102245.31;;;16.88;100.00
48077;BME280;33854;57.708;12.008;2022-10-31T13:04:58;102229.59;;;16.31;100.00
48077;BME280;33854;57.708;12.008;2022-10-31T13:12:38;102236.22;;;16.77;100.00
48077;BME280;33854;57.708;12.008;2022-10-31T13:15:23;102231.28;;;16.88;100.00
48077;BME280;33854;57.708;12.008;2022-10-31T13:17:56;102236.06;;;17.50;100.00
48077;BME280;33854;57.708;12.008;2022-10-31T13:20:32;102268.75;;;16.94;100.00
48077;BME280;33854;57.708;12.008;2022-10-31T13:23:33;102258.22;;;16.38;100.00
48077;BME280;33854;57.708;12.008;2022-10-31T13:26:05;102215.09;;;16.02;100.00
48077;BME280;33854;57.708;12.008;2022-10-31T13:31:04;102191.88;;;14.91;100.00
48077;BME280;33854;57.708;12.008;2022-10-31T13:33:34;102102.16;;;14.78;100.00
48077;BME280;33854;57.708;12.008;2022-10-31T13:38:36;101974.09;;;14.41;100.00
48077;BME280;33854;57.708;12.008;2022-10-31T13:44:18;101893.47;;;14.23;100.00
48077;BME280;33854;57.708;12.008;2022-10-31T13:46:46;101867.22;;;14.03;100.00
48077;BME280;33854;57.708;12.008;2022-10-31T13:49:25;101817.66;;;13.95;100.00
48077;BME280;33854;57.708;12.008;2022-10-31T13:51:51;101790.38;;;13.79;100.00
48077;BME280;33854;57.708;12.008;2022-10-31T13:54:32;101770.88;;;13.85;100.00
48077;BME280;33854;57.708;12.008;2022-10-31T13:56:59;101747.88;;;13.91;100.00
48077;BME280;33854;57.708;12.008;2022-10-31T13:59:27;101728.91;;;13.85;100.00
48077;BME280;33854;57.708;12.008;2022-10-31T14:01:56;101735.47;;;13.75;100.00
48077;BME280;33854;57.708;12.008;2022-10-31T14:04:35;101732.44;;;13.84;100.00
48077;BME280;33854;57.708;12.008;2022-10-31T14:07:13;101729.75;;;13.85;100.00
48077;BME280;33854;57.708;12.008;2022-10-31T14:10:20;101745.13;;;13.74;100.00
48077;BME280;33854;57.708;12.008;2022-10-31T14:12:47;101726.88;;;13.71;100.00
48077;BME280;33854;57.708;12.008;2022-10-31T14:15:24;101716.78;;;13.62;100.00
48077;BME280;33854;57.708;12.008;2022-10-31T14:18:06;101716.16;;;13.57;100.00
48077;BME280;33854;57.708;12.008;2022-10-31T14:20:43;101701.84;;;13.44;100.00
48077;BME280;33854;57.708;12.008;2022-10-31T14:25:52;101671.94;;;13.28;100.00
48077;BME280;33854;57.708;12.008;2022-10-31T14:28:21;101673.09;;;13.21;100.00
48077;BME280;33854;57.708;12.008;2022-10-31T14:30:55;101657.50;;;13.18;100.00